createdAt,value
2018-02-02T00:00:20.931Z,993.13
2018-02-02T00:01:20.939Z,993.10
2018-02-02T00:02:20.964Z,993.06
2018-02-02T00:03:20.976Z,993.06
2018-02-02T00:04:20.996Z,993.11
2018-02-02T00:05:21.012Z,993.13
2018-02-02T00:06:21.029Z,993.10
2018-02-02T00:07:21.042Z,993.07
2018-02-02T00:08:21.064Z,993.10
2018-02-02T00:09:21.080Z,993.06
2018-02-02T00:10:21.097Z,992.99
2018-02-02T00:11:21.116Z,993.00
2018-02-02T00:12:21.125Z,992.99
2018-02-02T00:13:21.148Z,993.00
2018-02-02T00:14:21.160Z,992.86
2018-02-02T00:15:21.182Z,992.97
2018-02-02T00:16:21.193Z,993.00
2018-02-02T00:17:21.216Z,992.95
2018-02-02T00:18:21.227Z,992.90
2018-02-02T00:19:21.250Z,992.91
2018-02-02T00:20:21.266Z,992.95
2018-02-02T00:21:21.335Z,992.84
2018-02-02T00:22:21.295Z,992.82
2018-02-02T00:23:21.318Z,992.90
2018-02-02T00:24:21.328Z,992.88
2018-02-02T00:25:21.351Z,992.90
2018-02-02T00:26:21.369Z,992.81
2018-02-02T00:27:21.380Z,992.93
2018-02-02T00:28:21.400Z,992.94
2018-02-02T00:29:21.418Z,992.95
2018-02-02T00:30:21.430Z,992.88
2018-02-02T00:31:21.447Z,992.97
2018-02-02T00:32:21.462Z,992.97
2018-02-02T00:33:21.480Z,992.93
2018-02-02T00:34:21.502Z,992.92
2018-02-02T00:35:21.520Z,992.89
2018-02-02T00:36:21.531Z,992.91
2018-02-02T00:37:21.554Z,992.91
2018-02-02T00:38:21.571Z,992.93
2018-02-02T00:39:21.588Z,992.92
2018-02-02T00:40:21.598Z,993.00
2018-02-02T00:41:21.621Z,993.00
2018-02-02T00:42:21.637Z,992.90
2018-02-02T00:43:21.655Z,992.96
2018-02-02T00:44:21.668Z,992.82
2018-02-02T00:45:21.688Z,992.95
2018-02-02T00:46:21.700Z,992.92
2018-02-02T00:47:21.723Z,992.95
2018-02-02T00:48:21.739Z,992.89
2018-02-02T00:49:21.756Z,992.85
2018-02-02T00:50:21.767Z,992.81
2018-02-02T00:51:21.784Z,992.77
2018-02-02T00:52:21.807Z,992.86
2018-02-02T00:53:21.824Z,992.83
2018-02-02T00:54:21.835Z,992.75
2018-02-02T00:55:21.854Z,992.79
2018-02-02T00:56:21.876Z,992.73
2018-02-02T00:57:21.892Z,992.83
2018-02-02T00:58:21.903Z,992.79
2018-02-02T00:59:21.920Z,992.75
2018-02-02T01:00:21.936Z,992.80
2018-02-02T01:01:21.955Z,992.79
2018-02-02T01:02:21.972Z,992.78
2018-02-02T01:03:21.994Z,992.81
2018-02-02T01:04:22.004Z,992.87
2018-02-02T01:05:22.027Z,992.83
2018-02-02T01:06:22.039Z,992.79
2018-02-02T01:07:22.062Z,992.76
2018-02-02T01:08:22.074Z,992.80
2018-02-02T01:09:22.095Z,992.80
2018-02-02T01:10:22.107Z,992.76
2018-02-02T01:11:22.128Z,992.74
2018-02-02T01:12:22.140Z,992.75
2018-02-02T01:13:22.162Z,992.74
2018-02-02T01:14:22.179Z,992.74
2018-02-02T01:15:22.197Z,992.75
2018-02-02T01:16:22.207Z,992.79
2018-02-02T01:17:22.231Z,992.77
2018-02-02T01:18:22.242Z,992.70
2018-02-02T01:19:22.266Z,992.69
2018-02-02T01:20:22.278Z,992.68
2018-02-02T01:21:22.298Z,992.66
2018-02-02T01:22:22.309Z,992.67
2018-02-02T01:23:22.335Z,992.61
2018-02-02T01:24:22.344Z,992.64
2018-02-02T01:25:22.367Z,992.53
2018-02-02T01:26:22.379Z,992.61
2018-02-02T01:27:22.399Z,992.60
2018-02-02T01:28:22.412Z,992.62
2018-02-02T01:29:22.433Z,992.65
2018-02-02T01:30:22.445Z,992.64
2018-02-02T01:31:22.470Z,992.62
2018-02-02T01:32:22.485Z,992.56
2018-02-02T01:33:22.498Z,992.57
2018-02-02T01:34:22.513Z,992.63
2018-02-02T01:35:22.530Z,992.58
2018-02-02T01:36:22.552Z,992.68
2018-02-02T01:37:22.570Z,992.59
2018-02-02T01:38:22.581Z,992.63
2018-02-02T01:39:22.598Z,992.57
2018-02-02T01:40:22.621Z,992.59
2018-02-02T01:41:22.637Z,992.56
2018-02-02T01:42:22.649Z,992.53
2018-02-02T01:43:22.668Z,992.61
2018-02-02T01:44:22.688Z,992.54
2018-02-02T01:45:22.701Z,992.57
2018-02-02T01:46:22.724Z,992.62
2018-02-02T01:47:22.735Z,992.57
2018-02-02T01:48:22.752Z,992.64
2018-02-02T01:49:22.774Z,992.65
2018-02-02T01:50:22.791Z,992.67
2018-02-02T01:51:22.808Z,992.63
2018-02-02T01:52:22.819Z,992.65
2018-02-02T01:53:22.837Z,992.65
2018-02-02T01:54:22.858Z,992.62
2018-02-02T01:55:22.876Z,992.64
2018-02-02T01:56:22.887Z,992.55
2018-02-02T01:57:22.905Z,992.56
2018-02-02T01:58:22.927Z,992.57
2018-02-02T01:59:22.945Z,992.49
2018-02-02T02:00:22.955Z,992.51
2018-02-02T02:01:22.973Z,992.49
2018-02-02T02:02:22.995Z,992.50
2018-02-02T02:03:23.013Z,992.48
2018-02-02T02:04:23.029Z,992.48
2018-02-02T02:05:23.047Z,992.44
2018-02-02T02:06:23.064Z,992.43
2018-02-02T02:07:23.076Z,992.45
2018-02-02T02:08:23.097Z,992.45
2018-02-02T02:09:23.109Z,992.45
2018-02-02T02:10:23.134Z,992.41
2018-02-02T02:11:23.145Z,992.40
2018-02-02T02:12:23.169Z,992.35
2018-02-02T02:13:23.177Z,992.34
2018-02-02T02:14:23.200Z,992.34
2018-02-02T02:15:23.214Z,992.39
2018-02-02T02:16:23.234Z,992.27
2018-02-02T02:17:23.252Z,992.31
2018-02-02T02:18:23.263Z,992.34
2018-02-02T02:19:23.281Z,992.31
2018-02-02T02:20:23.296Z,992.24
2018-02-02T02:21:23.314Z,992.19
2018-02-02T02:22:23.332Z,992.18
2018-02-02T02:23:23.354Z,992.20
2018-02-02T02:24:23.365Z,992.10
2018-02-02T02:25:23.388Z,992.18
2018-02-02T02:26:23.400Z,992.14
2018-02-02T02:27:23.424Z,992.15
2018-02-02T02:28:23.433Z,992.15
2018-02-02T02:29:23.456Z,992.09
2018-02-02T02:30:23.468Z,992.08
2018-02-02T02:31:23.490Z,992.12
2018-02-02T02:32:23.502Z,992.12
2018-02-02T02:33:23.522Z,992.09
2018-02-02T02:34:23.542Z,992.17
2018-02-02T02:35:23.554Z,992.14
2018-02-02T02:36:23.574Z,992.18
2018-02-02T02:37:23.587Z,992.09
2018-02-02T02:38:23.609Z,992.12
2018-02-02T02:39:23.621Z,992.08
2018-02-02T02:40:23.643Z,992.11
2018-02-02T02:41:23.655Z,992.03
2018-02-02T02:42:23.678Z,992.11
2018-02-02T02:43:23.689Z,992.13
2018-02-02T02:44:23.711Z,992.13
2018-02-02T02:45:23.723Z,992.11
2018-02-02T02:46:23.746Z,992.09
2018-02-02T02:47:23.764Z,992.06
2018-02-02T02:48:23.782Z,992.08
2018-02-02T02:49:23.797Z,992.07
2018-02-02T02:50:23.808Z,992.09
2018-02-02T02:51:23.831Z,992.12
2018-02-02T02:52:23.841Z,992.06
2018-02-02T02:53:23.863Z,992.07
2018-02-02T02:54:23.874Z,992.08
2018-02-02T02:55:23.899Z,992.06
2018-02-02T02:56:23.910Z,992.03
2018-02-02T02:57:23.933Z,992.08
2018-02-02T02:58:23.943Z,992.03
2018-02-02T02:59:23.965Z,992.03
2018-02-02T03:00:23.975Z,992.01
2018-02-02T03:01:23.998Z,992.06
2018-02-02T03:02:24.010Z,991.93
2018-02-02T03:03:24.033Z,991.88
2018-02-02T03:04:24.045Z,991.97
2018-02-02T03:05:24.061Z,991.97
2018-02-02T03:06:24.081Z,991.97
2018-02-02T03:07:24.105Z,991.97
2018-02-02T03:08:24.110Z,991.93
2018-02-02T03:09:24.128Z,991.98
2018-02-02T03:10:24.148Z,992.03
2018-02-02T03:11:24.165Z,991.95
2018-02-02T03:12:24.177Z,991.97
2018-02-02T03:13:24.192Z,991.96
2018-02-02T03:14:24.216Z,991.86
2018-02-02T03:15:24.232Z,991.91
2018-02-02T03:16:24.243Z,991.86
2018-02-02T03:17:24.260Z,991.87
2018-02-02T03:18:24.282Z,991.97
2018-02-02T03:19:24.299Z,991.91
2018-02-02T03:20:24.309Z,991.88
2018-02-02T03:21:24.332Z,991.95
2018-02-02T03:22:24.343Z,991.91
2018-02-02T03:23:24.360Z,991.90
2018-02-02T03:24:24.382Z,991.89
2018-02-02T03:25:24.398Z,991.91
2018-02-02T03:26:24.411Z,991.90
2018-02-02T03:27:24.425Z,991.85
2018-02-02T03:28:24.449Z,991.90
2018-02-02T03:29:24.462Z,991.89
2018-02-02T03:30:24.475Z,991.87
2018-02-02T03:31:24.492Z,991.82
2018-02-02T03:32:24.512Z,991.83
2018-02-02T03:33:24.529Z,991.95
2018-02-02T03:34:24.543Z,991.93
2018-02-02T03:35:24.557Z,991.93
2018-02-02T03:36:24.578Z,991.89
2018-02-02T03:37:24.590Z,991.95
2018-02-02T03:38:24.612Z,991.89
2018-02-02T03:39:24.623Z,991.94
2018-02-02T03:40:24.643Z,991.91
2018-02-02T03:41:24.656Z,991.97
2018-02-02T03:42:24.683Z,991.96
2018-02-02T03:43:24.688Z,991.97
2018-02-02T03:44:24.710Z,991.91
2018-02-02T03:45:24.722Z,991.84
2018-02-02T03:46:24.743Z,991.95
2018-02-02T03:47:24.760Z,991.93
2018-02-02T03:48:24.771Z,991.96
2018-02-02T03:49:24.786Z,991.92
2018-02-02T03:50:24.809Z,991.90
2018-02-02T03:51:24.825Z,991.97
2018-02-02T03:52:24.835Z,992.01
2018-02-02T03:53:24.856Z,991.96
2018-02-02T03:54:24.868Z,991.92
2018-02-02T03:55:24.891Z,992.08
2018-02-02T03:56:24.903Z,991.97
2018-02-02T03:57:24.923Z,991.96
2018-02-02T03:58:24.934Z,992.00
2018-02-02T03:59:24.956Z,992.04
2018-02-02T04:00:24.966Z,992.11
2018-02-02T04:01:24.983Z,991.94
2018-02-02T04:02:25.006Z,992.02
2018-02-02T04:03:25.016Z,992.02
2018-02-02T04:04:25.037Z,991.96
2018-02-02T04:05:25.051Z,992.00
2018-02-02T04:06:25.071Z,991.95
2018-02-02T04:07:25.081Z,991.93
2018-02-02T04:08:25.103Z,991.99
2018-02-02T04:09:25.113Z,992.00
2018-02-02T04:10:25.139Z,992.04
2018-02-02T04:11:25.153Z,991.99
2018-02-02T04:12:25.163Z,991.96
2018-02-02T04:13:25.180Z,992.00
2018-02-02T04:14:25.202Z,992.04
2018-02-02T04:15:25.217Z,992.07
2018-02-02T04:16:25.230Z,992.04
2018-02-02T04:17:25.251Z,992.06
2018-02-02T04:18:25.262Z,992.01
2018-02-02T04:19:25.285Z,992.07
2018-02-02T04:20:25.294Z,992.06
2018-02-02T04:21:25.316Z,992.03
2018-02-02T04:22:25.328Z,992.01
2018-02-02T04:23:25.349Z,992.08
2018-02-02T04:24:25.359Z,991.92
2018-02-02T04:25:25.384Z,992.01
2018-02-02T04:26:25.393Z,991.97
2018-02-02T04:27:25.464Z,992.05
2018-02-02T04:28:25.430Z,992.00
2018-02-02T04:29:25.446Z,991.99
2018-02-02T04:30:25.458Z,992.01
2018-02-02T04:31:25.475Z,992.02
2018-02-02T04:32:25.496Z,992.07
2018-02-02T04:33:25.507Z,991.97
2018-02-02T04:34:25.530Z,992.03
2018-02-02T04:35:25.546Z,992.03
2018-02-02T04:36:25.556Z,992.08
2018-02-02T04:37:25.573Z,992.01
2018-02-02T04:38:25.594Z,992.05
2018-02-02T04:39:25.612Z,992.09
2018-02-02T04:40:25.621Z,992.03
2018-02-02T04:41:25.644Z,991.95
2018-02-02T04:42:25.655Z,991.98
2018-02-02T04:43:25.676Z,992.02
2018-02-02T04:44:25.691Z,991.99
2018-02-02T04:45:25.705Z,991.99
2018-02-02T04:46:25.721Z,991.98
2018-02-02T04:47:25.743Z,992.02
2018-02-02T04:48:25.753Z,991.97
2018-02-02T04:49:25.770Z,992.01
2018-02-02T04:50:25.794Z,992.03
2018-02-02T04:51:25.804Z,991.98
2018-02-02T04:52:25.824Z,992.00
2018-02-02T04:53:25.837Z,991.98
2018-02-02T04:54:25.858Z,991.95
2018-02-02T04:55:25.869Z,991.97
2018-02-02T04:56:25.891Z,991.99
2018-02-02T04:57:25.902Z,991.96
2018-02-02T04:58:25.927Z,991.97
2018-02-02T04:59:25.942Z,992.00
2018-02-02T05:00:25.957Z,991.92
2018-02-02T05:01:25.974Z,991.94
2018-02-02T05:02:25.992Z,991.93
2018-02-02T05:03:26.001Z,991.96
2018-02-02T05:04:26.029Z,991.92
2018-02-02T05:05:26.041Z,991.96
2018-02-02T05:06:26.052Z,991.99
2018-02-02T05:07:26.074Z,991.98
2018-02-02T05:08:26.083Z,991.91
2018-02-02T05:09:26.105Z,991.94
2018-02-02T05:10:26.117Z,992.00
2018-02-02T05:11:26.141Z,991.92
2018-02-02T05:12:26.148Z,991.99
2018-02-02T05:13:26.167Z,991.96
2018-02-02T05:14:26.189Z,991.98
2018-02-02T05:15:26.201Z,992.00
2018-02-02T05:16:26.217Z,991.99
2018-02-02T05:17:26.239Z,991.95
2018-02-02T05:18:26.301Z,991.97
2018-02-02T05:19:26.322Z,991.86
2018-02-02T05:20:26.282Z,992.01
2018-02-02T05:21:26.305Z,991.92
2018-02-02T05:22:26.322Z,991.98
2018-02-02T05:23:26.333Z,991.99
2018-02-02T05:24:26.354Z,991.98
2018-02-02T05:25:26.371Z,992.02
2018-02-02T05:26:26.382Z,992.01
2018-02-02T05:27:26.398Z,991.98
2018-02-02T05:28:26.422Z,991.97
2018-02-02T05:29:26.437Z,991.98
2018-02-02T05:30:26.448Z,992.01
2018-02-02T05:31:26.470Z,991.99
2018-02-02T05:32:26.480Z,992.00
2018-02-02T05:33:26.497Z,992.01
2018-02-02T05:34:26.514Z,992.07
2018-02-02T05:35:26.537Z,992.01
2018-02-02T05:36:26.557Z,992.04
2018-02-02T05:37:26.564Z,992.01
2018-02-02T05:38:26.586Z,991.99
2018-02-02T05:39:26.603Z,992.00
2018-02-02T05:40:26.612Z,992.04
2018-02-02T05:41:26.629Z,992.04
2018-02-02T05:42:26.652Z,992.08
2018-02-02T05:43:26.669Z,992.03
2018-02-02T05:44:26.678Z,992.03
2018-02-02T05:45:26.700Z,991.99
2018-02-02T05:46:26.712Z,992.02
2018-02-02T05:47:26.729Z,991.98
2018-02-02T05:48:26.744Z,992.02
2018-02-02T05:49:26.762Z,991.97
2018-02-02T05:50:26.778Z,992.05
2018-02-02T05:51:26.809Z,992.03
2018-02-02T05:52:26.810Z,992.00
2018-02-02T05:53:26.833Z,992.02
2018-02-02T05:54:26.846Z,991.97
2018-02-02T05:55:26.862Z,991.95
2018-02-02T05:56:26.882Z,991.93
2018-02-02T05:57:26.899Z,991.98
2018-02-02T05:58:26.910Z,991.96
2018-02-02T05:59:26.927Z,991.99
2018-02-02T06:00:26.948Z,992.04
2018-02-02T06:01:26.959Z,992.07
2018-02-02T06:02:26.982Z,992.06
2018-02-02T06:03:26.998Z,992.08
2018-02-02T06:04:27.018Z,992.07
2018-02-02T06:05:27.030Z,992.03
2018-02-02T06:06:27.048Z,992.02
2018-02-02T06:07:27.058Z,991.97
2018-02-02T06:08:27.079Z,991.96
2018-02-02T06:09:27.091Z,991.97
2018-02-02T06:10:27.111Z,991.94
2018-02-02T06:11:27.123Z,991.96
2018-02-02T06:12:27.146Z,991.88
2018-02-02T06:13:27.157Z,991.92
2018-02-02T06:14:27.178Z,991.85
2018-02-02T06:15:27.196Z,991.89
2018-02-02T06:16:27.210Z,991.86
2018-02-02T06:17:27.222Z,991.89
2018-02-02T06:18:27.242Z,991.81
2018-02-02T06:19:27.256Z,991.88
2018-02-02T06:20:27.276Z,991.78
2018-02-02T06:21:27.291Z,991.86
2018-02-02T06:22:27.308Z,991.82
2018-02-02T06:23:27.320Z,991.77
2018-02-02T06:24:27.385Z,991.80
2018-02-02T06:25:27.380Z,991.80
2018-02-02T06:26:27.368Z,991.81
2018-02-02T06:27:27.390Z,991.83
2018-02-02T06:28:27.400Z,991.86
2018-02-02T06:29:27.424Z,991.86
2018-02-02T06:30:27.433Z,991.87
2018-02-02T06:31:27.456Z,991.84
2018-02-02T06:32:27.467Z,991.91
2018-02-02T06:33:27.489Z,991.85
2018-02-02T06:34:27.500Z,991.87
2018-02-02T06:35:27.522Z,991.86
2018-02-02T06:36:27.532Z,991.80
2018-02-02T06:37:27.547Z,991.83
2018-02-02T06:38:27.565Z,991.87
2018-02-02T06:39:27.641Z,991.84
2018-02-02T06:40:27.602Z,991.82
2018-02-02T06:41:27.620Z,991.91
2018-02-02T06:42:27.630Z,991.82
2018-02-02T06:43:27.647Z,991.82
2018-02-02T06:44:27.669Z,991.80
2018-02-02T06:45:27.685Z,991.85
2018-02-02T06:46:27.696Z,991.86
2018-02-02T06:47:27.713Z,991.86
2018-02-02T06:48:27.735Z,991.85
2018-02-02T06:49:27.748Z,991.90
2018-02-02T06:50:27.767Z,991.89
2018-02-02T06:51:27.785Z,991.92
2018-02-02T06:52:27.794Z,991.93
2018-02-02T06:53:27.812Z,991.94
2018-02-02T06:54:27.834Z,991.97
2018-02-02T06:55:27.851Z,991.93
2018-02-02T06:56:27.861Z,991.90
2018-02-02T06:57:27.884Z,991.91
2018-02-02T06:58:27.898Z,992.00
2018-02-02T06:59:27.917Z,992.00
2018-02-02T07:00:27.927Z,991.92
2018-02-02T07:01:27.954Z,991.92
2018-02-02T07:02:27.960Z,991.95
2018-02-02T07:03:27.983Z,991.96
2018-02-02T07:04:27.994Z,991.97
2018-02-02T07:05:28.017Z,991.97
2018-02-02T07:06:28.028Z,991.97
2018-02-02T07:07:28.045Z,991.99
2018-02-02T07:08:28.106Z,992.02
2018-02-02T07:09:28.083Z,991.97
2018-02-02T07:10:28.095Z,992.01
2018-02-02T07:11:28.112Z,992.03
2018-02-02T07:12:28.133Z,992.00
2018-02-02T07:13:28.145Z,992.02
2018-02-02T07:14:28.167Z,992.05
2018-02-02T07:15:28.183Z,992.04
2018-02-02T07:16:28.196Z,992.07
2018-02-02T07:17:28.212Z,992.05
2018-02-02T07:18:28.234Z,992.03
2018-02-02T07:19:28.251Z,992.05
2018-02-02T07:20:28.261Z,992.03
2018-02-02T07:21:28.279Z,992.09
2018-02-02T07:22:28.301Z,992.09
2018-02-02T07:23:28.313Z,992.08
2018-02-02T07:24:28.335Z,992.12
2018-02-02T07:25:28.347Z,992.09
2018-02-02T07:26:28.369Z,992.14
2018-02-02T07:27:28.383Z,992.15
2018-02-02T07:28:28.408Z,992.13
2018-02-02T07:29:28.414Z,992.18
2018-02-02T07:30:28.437Z,992.21
2018-02-02T07:31:28.455Z,992.13
2018-02-02T07:32:28.466Z,992.19
2018-02-02T07:33:28.484Z,992.26
2018-02-02T07:34:28.509Z,992.27
2018-02-02T07:35:28.523Z,992.23
2018-02-02T07:36:28.536Z,992.24
2018-02-02T07:37:28.558Z,992.29
2018-02-02T07:38:28.612Z,992.23
2018-02-02T07:39:28.594Z,992.23
2018-02-02T07:40:28.603Z,992.27
2018-02-02T07:41:28.626Z,992.26
2018-02-02T07:42:28.637Z,992.27
2018-02-02T07:43:28.659Z,992.24
2018-02-02T07:44:28.671Z,992.29
2018-02-02T07:45:28.688Z,992.26
2018-02-02T07:46:28.711Z,992.28
2018-02-02T07:47:28.723Z,992.26
2018-02-02T07:48:28.746Z,992.29
2018-02-02T07:49:28.757Z,992.35
2018-02-02T07:50:28.780Z,992.37
2018-02-02T07:51:28.792Z,992.35
2018-02-02T07:52:28.813Z,992.44
2018-02-02T07:53:28.825Z,992.42
2018-02-02T07:54:28.848Z,992.44
2018-02-02T07:55:28.865Z,992.45
2018-02-02T07:56:28.877Z,992.49
2018-02-02T07:57:28.893Z,992.43
2018-02-02T07:58:28.916Z,992.45
2018-02-02T07:59:28.933Z,992.45
2018-02-02T08:00:28.944Z,992.43
2018-02-02T08:01:28.962Z,992.46
2018-02-02T08:02:28.986Z,992.48
2018-02-02T08:03:29.002Z,992.45
2018-02-02T08:04:29.013Z,992.47
2018-02-02T08:05:29.029Z,992.49
2018-02-02T08:06:29.053Z,992.48
2018-02-02T08:07:29.076Z,992.46
2018-02-02T08:08:29.081Z,992.63
2018-02-02T08:09:29.104Z,992.52
2018-02-02T08:10:29.117Z,992.52
2018-02-02T08:11:29.132Z,992.57
2018-02-02T08:12:29.159Z,992.61
2018-02-02T08:13:29.173Z,992.58
2018-02-02T08:14:29.184Z,992.56
2018-02-02T08:15:29.203Z,992.57
2018-02-02T08:16:29.225Z,992.59
2018-02-02T08:17:29.241Z,992.60
2018-02-02T08:18:29.252Z,992.62
2018-02-02T08:19:29.270Z,992.68
2018-02-02T08:20:29.291Z,992.65
2018-02-02T08:21:29.310Z,992.69
2018-02-02T08:22:29.322Z,992.75
2018-02-02T08:23:29.339Z,992.71
2018-02-02T08:24:29.365Z,992.75
2018-02-02T08:25:29.374Z,992.79
2018-02-02T08:26:29.396Z,992.81
2018-02-02T08:27:29.408Z,992.78
2018-02-02T08:28:29.436Z,992.80
2018-02-02T08:29:29.442Z,992.78
2018-02-02T08:30:29.466Z,992.85
2018-02-02T08:31:29.482Z,992.82
2018-02-02T08:32:29.499Z,992.86
2018-02-02T08:33:29.511Z,992.87
2018-02-02T08:34:29.582Z,992.88
2018-02-02T08:35:29.546Z,992.91
2018-02-02T08:36:29.569Z,992.92
2018-02-02T08:37:29.583Z,992.87
2018-02-02T08:38:29.604Z,992.92
2018-02-02T08:39:29.616Z,992.89
2018-02-02T08:40:29.638Z,992.92
2018-02-02T08:41:29.654Z,992.90
2018-02-02T08:42:29.668Z,992.91
2018-02-02T08:43:29.695Z,992.97
2018-02-02T08:44:29.701Z,992.92
2018-02-02T08:45:29.729Z,992.95
2018-02-02T08:46:29.737Z,992.96
2018-02-02T08:47:29.760Z,992.88
2018-02-02T08:48:29.776Z,992.92
2018-02-02T08:49:29.794Z,992.95
2018-02-02T08:50:29.806Z,992.93
2018-02-02T08:51:29.830Z,992.93
2018-02-02T08:52:29.841Z,993.01
2018-02-02T08:53:29.863Z,992.95
2018-02-02T08:54:29.876Z,992.96
2018-02-02T08:55:29.898Z,993.00
2018-02-02T08:56:29.910Z,993.02
2018-02-02T08:57:29.931Z,992.98
2018-02-02T08:58:29.950Z,993.00
2018-02-02T08:59:29.961Z,993.01
2018-02-02T09:00:29.978Z,993.03
2018-02-02T09:01:30.002Z,993.05
2018-02-02T09:02:30.025Z,992.94
2018-02-02T09:03:30.037Z,993.02
2018-02-02T09:04:30.047Z,992.98
2018-02-02T09:05:30.070Z,993.03
2018-02-02T09:06:30.083Z,992.99
2018-02-02T09:07:30.106Z,993.02
2018-02-02T09:08:30.117Z,993.03
2018-02-02T09:09:30.139Z,993.05
2018-02-02T09:10:30.151Z,993.04
2018-02-02T09:11:30.174Z,993.05
2018-02-02T09:12:30.185Z,993.10
2018-02-02T09:13:30.211Z,993.10
2018-02-02T09:14:30.220Z,993.12
2018-02-02T09:15:30.244Z,993.18
2018-02-02T09:16:30.261Z,993.16
2018-02-02T09:17:30.272Z,993.20
2018-02-02T09:18:30.289Z,993.22
2018-02-02T09:19:30.308Z,993.21
2018-02-02T09:20:30.329Z,993.22
2018-02-02T09:21:30.347Z,993.24
2018-02-02T09:22:30.360Z,993.24
2018-02-02T09:23:30.377Z,993.27
2018-02-02T09:24:30.399Z,993.21
2018-02-02T09:25:30.418Z,993.26
2018-02-02T09:26:30.429Z,993.27
2018-02-02T09:27:30.446Z,993.24
2018-02-02T09:28:30.469Z,993.28
2018-02-02T09:29:30.487Z,993.29
2018-02-02T09:30:30.502Z,993.25
2018-02-02T09:31:30.517Z,993.30
2018-02-02T09:32:30.538Z,993.30
2018-02-02T09:33:30.553Z,993.33
2018-02-02T09:34:30.622Z,993.35
2018-02-02T09:35:30.586Z,993.33
2018-02-02T09:36:30.602Z,993.31
2018-02-02T09:37:30.629Z,993.33
2018-02-02T09:38:30.638Z,993.34
2018-02-02T09:39:30.657Z,993.32
2018-02-02T09:40:30.679Z,993.34
2018-02-02T09:41:30.696Z,993.38
2018-02-02T09:42:30.708Z,993.36
2018-02-02T09:43:30.726Z,993.38
2018-02-02T09:44:30.749Z,993.37
2018-02-02T09:45:30.762Z,993.37
2018-02-02T09:46:30.785Z,993.42
2018-02-02T09:47:30.803Z,993.37
2018-02-02T09:48:30.814Z,993.45
2018-02-02T09:49:30.837Z,993.41
2018-02-02T09:50:30.855Z,993.44
2018-02-02T09:51:30.873Z,993.49
2018-02-02T09:52:30.889Z,993.41
2018-02-02T09:53:30.902Z,993.49
2018-02-02T09:54:30.926Z,993.49
2018-02-02T09:55:30.937Z,993.51
2018-02-02T09:56:30.960Z,993.53
2018-02-02T09:57:30.972Z,993.52
2018-02-02T09:58:30.997Z,993.57
2018-02-02T09:59:31.008Z,993.57
2018-02-02T10:00:31.031Z,993.59
2018-02-02T10:01:31.043Z,993.57
2018-02-02T10:02:31.068Z,993.59
2018-02-02T10:03:31.080Z,993.59
2018-02-02T10:04:31.098Z,993.65
2018-02-02T10:05:31.120Z,993.58
2018-02-02T10:06:31.139Z,993.64
2018-02-02T10:07:31.155Z,993.67
2018-02-02T10:08:31.167Z,993.61
2018-02-02T10:09:31.191Z,993.68
2018-02-02T10:10:31.204Z,993.66
2018-02-02T10:11:31.223Z,993.66
2018-02-02T10:12:31.246Z,993.64
2018-02-02T10:13:31.263Z,993.70
2018-02-02T10:14:31.276Z,993.67
2018-02-02T10:15:31.295Z,993.74
2018-02-02T10:16:31.318Z,993.72
2018-02-02T10:17:31.335Z,993.74
2018-02-02T10:18:31.349Z,993.75
2018-02-02T10:19:31.373Z,993.79
2018-02-02T10:20:31.389Z,993.75
2018-02-02T10:21:31.401Z,993.78
2018-02-02T10:22:31.420Z,993.81
2018-02-02T10:23:31.439Z,993.80
2018-02-02T10:24:31.461Z,993.83
2018-02-02T10:25:31.475Z,993.85
2018-02-02T10:26:31.498Z,993.82
2018-02-02T10:27:31.516Z,993.87
2018-02-02T10:28:31.527Z,993.82
2018-02-02T10:29:31.545Z,993.79
2018-02-02T10:30:31.570Z,993.81
2018-02-02T10:31:31.588Z,993.82
2018-02-02T10:32:31.601Z,993.76
2018-02-02T10:33:31.624Z,993.79
2018-02-02T10:34:31.637Z,993.76
2018-02-02T10:35:31.656Z,993.83
2018-02-02T10:36:31.672Z,993.88
2018-02-02T10:37:31.691Z,993.85
2018-02-02T10:38:31.709Z,993.89
2018-02-02T10:39:31.732Z,993.97
2018-02-02T10:40:31.748Z,993.91
2018-02-02T10:41:31.763Z,993.89
2018-02-02T10:42:31.790Z,993.94
2018-02-02T10:43:31.799Z,993.94
2018-02-02T10:44:31.823Z,993.92
2018-02-02T10:45:31.837Z,994.01
2018-02-02T10:46:31.860Z,994.00
2018-02-02T10:47:31.872Z,993.92
2018-02-02T10:48:31.894Z,993.95
2018-02-02T10:49:31.908Z,993.98
2018-02-02T10:50:31.932Z,993.98
2018-02-02T10:51:31.949Z,993.99
2018-02-02T10:52:31.963Z,994.00
2018-02-02T10:53:31.985Z,994.04
2018-02-02T10:54:32.004Z,994.06
2018-02-02T10:55:32.023Z,994.02
2018-02-02T10:56:32.041Z,994.10
2018-02-02T10:57:32.059Z,994.07
2018-02-02T10:58:32.071Z,994.04
2018-02-02T10:59:32.096Z,994.04
2018-02-02T11:00:32.107Z,994.08
2018-02-02T11:01:32.131Z,994.06
2018-02-02T11:02:32.144Z,994.03
2018-02-02T11:03:32.173Z,993.97
2018-02-02T11:04:32.181Z,994.00
2018-02-02T11:05:32.198Z,993.96
2018-02-02T11:06:32.223Z,994.02
2018-02-02T11:07:32.236Z,994.04
2018-02-02T11:08:32.258Z,994.03
2018-02-02T11:09:32.272Z,994.02
2018-02-02T11:10:32.296Z,994.02
2018-02-02T11:11:32.307Z,994.06
2018-02-02T11:12:32.332Z,994.04
2018-02-02T11:13:32.346Z,994.09
2018-02-02T11:14:32.368Z,994.09
2018-02-02T11:15:32.381Z,994.04
2018-02-02T11:16:32.405Z,994.07
2018-02-02T11:17:32.418Z,994.09
2018-02-02T11:18:32.444Z,994.04
2018-02-02T11:19:32.455Z,994.10
2018-02-02T11:20:32.478Z,994.05
2018-02-02T11:21:32.501Z,994.07
2018-02-02T11:22:32.510Z,994.10
2018-02-02T11:23:32.534Z,994.09
2018-02-02T11:24:32.546Z,994.07
2018-02-02T11:25:32.570Z,994.08
2018-02-02T11:26:32.583Z,994.10
2018-02-02T11:27:32.607Z,994.06
2018-02-02T11:28:32.620Z,994.07
2018-02-02T11:29:32.643Z,994.05
2018-02-02T11:30:32.656Z,994.08
2018-02-02T11:31:32.682Z,994.05
2018-02-02T11:32:32.692Z,994.05
2018-02-02T11:33:32.717Z,994.02
2018-02-02T11:34:32.730Z,994.06
2018-02-02T11:35:32.760Z,994.05
2018-02-02T11:36:32.765Z,994.10
2018-02-02T11:37:32.784Z,994.06
2018-02-02T11:38:32.809Z,994.08
2018-02-02T11:39:32.827Z,994.13
2018-02-02T11:40:32.843Z,994.07
2018-02-02T11:41:32.858Z,994.06
2018-02-02T11:42:32.883Z,994.09
2018-02-02T11:43:32.901Z,994.11
2018-02-02T11:44:32.913Z,994.16
2018-02-02T11:45:32.932Z,994.12
2018-02-02T11:46:32.956Z,994.17
2018-02-02T11:47:32.974Z,994.19
2018-02-02T11:48:32.987Z,994.17
2018-02-02T11:49:33.005Z,994.16
2018-02-02T11:50:33.030Z,994.14
2018-02-02T11:51:33.049Z,994.14
2018-02-02T11:52:33.062Z,994.16
2018-02-02T11:53:33.086Z,994.18
2018-02-02T11:54:33.098Z,994.17
2018-02-02T11:55:33.118Z,994.21
2018-02-02T11:56:33.146Z,994.19
2018-02-02T11:57:33.161Z,994.24
2018-02-02T11:58:33.172Z,994.24
2018-02-02T11:59:33.193Z,994.21
2018-02-02T12:00:33.216Z,994.23
2018-02-02T12:01:33.263Z,994.24
2018-02-02T12:02:33.247Z,994.21
2018-02-02T12:03:33.266Z,994.29
2018-02-02T12:04:33.290Z,994.29
2018-02-02T12:05:33.308Z,994.28
2018-02-02T12:06:33.321Z,994.30
2018-02-02T12:07:33.341Z,994.32
2018-02-02T12:08:33.363Z,994.31
2018-02-02T12:09:33.381Z,994.35
2018-02-02T12:10:33.402Z,994.37
2018-02-02T12:11:33.422Z,994.31
2018-02-02T12:12:33.432Z,994.31
2018-02-02T12:13:33.451Z,994.33
2018-02-02T12:14:33.474Z,994.41
2018-02-02T12:15:33.494Z,994.37
2018-02-02T12:16:33.507Z,994.37
2018-02-02T12:17:33.526Z,994.44
2018-02-02T12:18:33.548Z,994.38
2018-02-02T12:19:33.565Z,994.43
2018-02-02T12:20:33.586Z,994.45
2018-02-02T12:21:33.599Z,994.45
2018-02-02T12:22:33.624Z,994.45
2018-02-02T12:23:33.637Z,994.46
2018-02-02T12:24:33.660Z,994.46
2018-02-02T12:25:33.675Z,994.47
2018-02-02T12:26:33.698Z,994.46
2018-02-02T12:27:33.713Z,994.49
2018-02-02T12:28:33.736Z,994.49